Time;durP1;ratioP1;P1;durP2;ratioP2;P2;SDS_P1;SDS_P2;PMS_P1;PMS_P2;Temp;Humidity;BMP_temperature;BMP_pressure;BME280_temperature;BME280_humidity;BME280_pressure;Samples;Min_cycle;Max_cycle;Signal;HPM_P1;HPM_P2
2022/05/22 00:01:56;;;;;;;6.63;6.03;;;;;;;29.48;nan;94280.09;4768719;30;20263;-75
2022/05/22 00:04:23;;;;;;;5.80;5.40;;;;;;;29.53;nan;94287.22;4763580;30;20437;-75
2022/05/22 00:06:48;;;;;;;6.63;6.13;;;;;;;29.51;nan;94284.06;4767418;30;20566;-75
2022/05/22 00:09:14;;;;;;;7.50;5.90;;;;;;;29.24;nan;94291.44;4781439;30;20533;-75
2022/05/22 00:11:40;;;;;;;6.00;5.57;;;;;;;29.67;nan;94282.41;4780941;30;20226;-74
2022/05/22 00:14:06;;;;;;;6.50;5.90;;;;;;;29.93;nan;94286.91;4781558;30;20266;-75
2022/05/22 00:16:37;;;;;;;6.97;6.40;;;;;;;29.39;nan;94284.75;4773410;30;20199;-75
2022/05/22 00:19:08;;;;;;;6.33;5.90;;;;;;;29.28;nan;94281.59;4763580;30;20183;-75
2022/05/22 00:21:35;;;;;;;6.53;6.03;;;;;;;29.84;nan;94283.47;4776730;30;20567;-76
2022/05/22 00:24:01;;;;;;;6.77;6.13;;;;;;;29.28;nan;94284.28;4780714;30;20432;-75
2022/05/22 00:26:27;;;;;;;6.33;5.87;;;;;;;28.91;nan;94278.50;4780405;30;20511;-76
2022/05/22 00:28:52;;;;;;;6.20;5.60;;;;;;;28.85;nan;94271.66;4764256;30;20513;-75
2022/05/22 00:31:18;;;;;;;7.03;5.70;;;;;;;29.64;nan;94272.25;4767497;30;20218;-75
2022/05/22 00:33:43;;;;;;;5.93;5.33;;;;;;;29.60;nan;94268.63;4771448;30;20198;-74
2022/05/22 00:36:09;;;;;;;5.87;5.37;;;;;;;29.51;nan;94265.97;4773454;30;20206;-76
2022/05/22 00:38:34;;;;;;;5.70;5.20;;;;;;;29.03;nan;94269.75;4763025;30;20191;-75
2022/05/22 00:41:00;;;;;;;6.70;5.33;;;;;;;29.18;nan;94271.16;4767111;30;20226;-75
2022/05/22 00:43:35;;;;;;;5.97;5.57;;;;;;;29.31;nan;94274.75;4780584;30;20598;-74
2022/05/22 00:46:02;;;;;;;6.77;6.17;;;;;;;29.15;nan;94271.81;4770665;30;20675;-75
2022/05/22 00:48:28;;;;;;;7.03;5.07;;;;;;;29.39;nan;94272.03;4763047;30;20444;-75
2022/05/22 00:51:16;;;;;;;5.93;5.33;;;;;;;29.14;nan;94267.50;4760386;30;20488;-75
2022/05/22 00:53:49;;;;;;;6.50;6.00;;;;;;;28.48;nan;94273.09;4779751;30;20482;-74
2022/05/22 00:56:20;;;;;;;6.17;5.10;;;;;;;29.31;nan;94270.19;4762974;30;20452;-74
2022/05/22 00:58:49;;;;;;;6.20;5.70;;;;;;;28.82;nan;94261.53;4752363;30;20436;-74
2022/05/22 01:01:15;;;;;;;6.13;5.73;;;;;;;28.94;nan;94267.06;4780284;30;20528;-74
2022/05/22 01:03:41;;;;;;;6.70;6.17;;;;;;;29.43;nan;94264.09;4760470;30;20531;-75
2022/05/22 01:06:09;;;;;;;5.90;5.40;;;;;;;29.09;nan;94267.66;4780609;30;20201;-74
2022/05/22 01:08:39;;;;;;;5.53;5.07;;;;;;;28.78;nan;94266.00;4767458;30;20216;-74
2022/05/22 01:11:09;;;;;;;7.47;5.70;;;;;;;28.98;nan;94267.22;4771332;30;20487;-75
2022/05/22 01:13:41;;;;;;;6.40;5.80;;;;;;;29.14;nan;94267.50;4781459;30;20430;-75
2022/05/22 01:16:06;;;;;;;6.80;5.47;;;;;;;29.35;nan;94264.94;4776697;30;20513;-75
2022/05/22 01:19:08;;;;;;;6.17;5.77;;;;;;;29.34;nan;94258.72;4768451;30;20531;-75
2022/05/22 01:21:34;;;;;;;7.23;5.43;;;;;;;29.05;nan;94261.34;4771407;30;20206;-75
2022/05/22 01:23:59;;;;;;;5.30;4.90;;;;;;;28.59;nan;94266.28;4780994;30;20432;-75
2022/05/22 01:26:28;;;;;;;5.80;5.17;;;;;;;29.12;nan;94259.75;4777784;30;20600;-74
2022/05/22 01:28:53;;;;;;;5.40;5.10;;;;;;;29.46;nan;94260.75;4755715;30;20226;-74
2022/05/22 01:31:19;;;;;;;4.97;4.57;;;;;;;29.51;nan;94252.47;4770431;30;20436;-75
2022/05/22 01:33:45;;;;;;;4.83;4.43;;;;;;;29.21;nan;94259.72;4765536;30;20230;-74
2022/05/22 01:36:10;;;;;;;5.50;4.50;;;;;;;28.22;nan;94266.59;4799898;29;20194;-75
2022/05/22 01:38:37;;;;;;;5.40;4.83;;;;;;;29.54;nan;94261.84;4783734;30;20209;-75
2022/05/22 01:41:04;;;;;;;5.10;4.60;;;;;;;29.70;nan;94262.88;4783448;30;20620;-74
2022/05/22 01:43:30;;;;;;;4.47;4.27;;;;;;;29.29;nan;94256.22;4786476;30;20512;-74
2022/05/22 01:45:55;;;;;;;4.67;4.27;;;;;;;29.39;nan;94255.88;4783148;30;20452;-75
2022/05/22 01:48:22;;;;;;;6.50;4.70;;;;;;;29.62;nan;94261.00;4770924;30;20218;-76
2022/05/22 01:50:48;;;;;;;7.10;3.80;;;;;;;27.97;nan;94267.34;4758465;30;20231;-75
2022/05/22 01:53:14;;;;;;;4.83;4.53;;;;;;;28.80;nan;94255.69;4747657;30;20446;-75
2022/05/22 01:55:39;;;;;;;4.03;3.53;;;;;;;28.97;nan;94265.66;4749389;30;20219;-74
2022/05/22 01:58:06;;;;;;;4.00;3.43;;;;;;;28.39;nan;94265.03;4761656;30;20488;-74
2022/05/22 02:00:33;;;;;;;3.97;3.60;;;;;;;28.86;nan;94259.00;4750838;30;20207;-75
2022/05/22 02:02:59;;;;;;;4.43;3.20;;;;;;;28.40;nan;94261.19;4747117;30;20441;-75
2022/05/22 02:05:24;;;;;;;4.07;3.67;;;;;;;28.18;nan;94262.94;4748292;30;20455;-75
2022/05/22 02:10:36;;;;;;;4.40;3.30;;;;;;;28.54;nan;94267.25;4765004;30;20201;-75
2022/05/22 02:13:01;;;;;;;3.50;2.97;;;;;;;28.09;nan;94267.50;4752640;30;20449;-75
2022/05/22 02:15:28;;;;;;;5.20;3.57;;;;;;;28.92;nan;94271.97;4756533;30;20445;-75
2022/05/22 02:17:54;;;;;;;3.10;2.90;;;;;;;28.65;nan;94277.69;4751471;30;20281;-75
2022/05/22 02:20:20;;;;;;;5.30;3.00;;;;;;;28.44;nan;94275.63;4750325;30;20433;-75
2022/05/22 02:22:48;;;;;;;2.73;2.63;;;;;;;28.90;nan;94270.72;4762986;30;20520;-75
2022/05/22 02:25:18;;;;;;;3.93;2.50;;;;;;;29.17;nan;94277.66;4747904;30;20450;-75
2022/05/22 02:27:43;;;;;;;5.43;2.80;;;;;;;28.00;nan;94280.16;4756450;30;20511;-75
2022/05/22 02:30:13;;;;;;;3.17;2.97;;;;;;;28.78;nan;94274.84;4745365;30;20788;-75
2022/05/22 02:32:38;;;;;;;2.73;2.50;;;;;;;28.62;nan;94276.44;4749856;30;20211;-75
2022/05/22 02:35:09;;;;;;;2.80;2.60;;;;;;;28.02;nan;94277.94;4757704;30;20446;-75
2022/05/22 02:37:42;;;;;;;2.03;1.93;;;;;;;28.54;nan;94290.72;4750310;30;20198;-75
2022/05/22 02:40:09;;;;;;;3.37;3.07;;;;;;;28.51;nan;94275.94;4764610;30;20429;-75
2022/05/22 02:42:39;;;;;;;4.40;3.17;;;;;;;28.72;nan;94278.03;4742181;30;20450;-75
2022/05/22 02:45:05;;;;;;;3.87;2.73;;;;;;;28.64;nan;94278.81;4764195;30;20953;-75
2022/05/22 02:47:33;;;;;;;2.73;2.50;;;;;;;29.05;nan;94282.91;4747637;30;20465;-75
2022/05/22 02:49:58;;;;;;;3.80;2.30;;;;;;;28.81;nan;94278.81;4763543;30;20426;-75
2022/05/22 02:52:24;;;;;;;2.30;2.10;;;;;;;28.93;nan;94287.03;4749659;30;20954;-75
2022/05/22 02:54:49;;;;;;;2.50;2.30;;;;;;;28.97;nan;94281.81;4746121;30;20275;-75
2022/05/22 02:57:21;;;;;;;2.80;2.50;;;;;;;28.44;nan;94286.41;4746092;30;20207;-75
2022/05/22 02:59:49;;;;;;;2.70;2.50;;;;;;;28.94;nan;94293.22;4760518;30;20216;-75
2022/05/22 03:02:16;;;;;;;2.30;2.20;;;;;;;28.49;nan;94293.53;4763590;30;20569;-75
2022/05/22 03:04:42;;;;;;;2.67;1.90;;;;;;;28.67;nan;94287.06;4748875;30;20529;-74
2022/05/22 03:07:09;;;;;;;1.90;1.80;;;;;;;28.54;nan;94296.09;4744664;30;20502;-75
2022/05/22 03:09:36;;;;;;;2.30;1.87;;;;;;;28.15;nan;94295.06;4754251;30;20429;-75
2022/05/22 03:12:15;;;;;;;1.87;1.70;;;;;;;28.41;nan;94303.97;4759511;30;20453;-74
2022/05/22 03:14:48;;;;;;;4.17;2.00;;;;;;;28.96;nan;94301.78;4763986;30;20409;-76
2022/05/22 03:17:14;;;;;;;4.00;2.20;;;;;;;28.53;nan;94300.69;4755195;30;21038;-73
2022/05/22 03:19:40;;;;;;;2.20;1.40;;;;;;;28.40;nan;94301.59;4747474;30;20502;-75
2022/05/22 03:22:07;;;;;;;1.70;1.60;;;;;;;27.94;nan;94301.03;4747709;30;20273;-75
2022/05/22 03:24:33;;;;;;;2.17;1.90;;;;;;;28.79;nan;94306.06;4745669;30;20264;-75
2022/05/22 03:27:01;;;;;;;1.87;1.77;;;;;;;29.13;nan;94304.47;4751541;30;20505;-75
2022/05/22 03:29:26;;;;;;;4.33;1.90;;;;;;;28.72;nan;94305.78;4757852;30;20476;-75
2022/05/22 03:31:52;;;;;;;3.10;1.50;;;;;;;29.37;nan;94306.63;4729427;30;20454;-74
2022/05/22 03:34:17;;;;;;;1.47;1.37;;;;;;;29.01;nan;94305.09;4752152;30;20204;-74
2022/05/22 03:36:43;;;;;;;1.50;1.40;;;;;;;28.98;nan;94304.94;4748763;30;20263;-75
2022/05/22 03:39:09;;;;;;;1.50;1.40;;;;;;;29.36;nan;94307.72;4745788;30;20617;-74
2022/05/22 03:41:36;;;;;;;4.73;1.53;;;;;;;29.54;nan;94310.41;4730053;30;20263;-75
2022/05/22 03:44:02;;;;;;;1.50;1.40;;;;;;;29.69;nan;94315.25;4760616;30;20257;-75
2022/05/22 03:46:27;;;;;;;3.87;1.83;;;;;;;29.61;nan;94315.28;4760120;30;20485;-75
2022/05/22 03:48:52;;;;;;;4.10;1.40;;;;;;;29.44;nan;94316.13;4744430;30;20293;-75
2022/05/22 03:51:18;;;;;;;3.93;1.57;;;;;;;29.69;nan;94317.94;4745036;30;20235;-74
2022/05/22 03:53:44;;;;;;;1.60;1.50;;;;;;;30.06;nan;94317.47;4748227;30;20192;-74
2022/05/22 03:56:14;;;;;;;3.43;1.53;;;;;;;29.54;nan;94310.41;4762927;30;20195;-76
2022/05/22 03:58:41;;;;;;;2.70;1.40;;;;;;;29.95;nan;94317.06;4763259;30;20250;-76
2022/05/22 04:01:07;;;;;;;1.63;1.53;;;;;;;29.75;nan;94311.28;4754608;30;20446;-75
2022/05/22 04:03:36;;;;;;;1.80;1.70;;;;;;;29.97;nan;94312.13;4753338;30;20452;-74
2022/05/22 04:06:03;;;;;;;1.53;1.43;;;;;;;30.01;nan;94304.16;4739997;30;20541;-74
2022/05/22 04:08:30;;;;;;;1.53;1.43;;;;;;;30.19;nan;94308.34;4745680;30;20975;-75
2022/05/22 04:10:56;;;;;;;1.90;1.40;;;;;;;30.39;nan;94317.59;4765052;30;20452;-75
2022/05/22 04:13:23;;;;;;;1.40;1.30;;;;;;;30.55;nan;94313.22;4757129;30;20456;-75
2022/05/22 04:15:48;;;;;;;1.70;1.60;;;;;;;30.74;nan;94317.38;4762648;30;20437;-75
2022/05/22 04:18:14;;;;;;;1.77;1.67;;;;;;;29.93;nan;94317.38;4743614;30;20425;-74
2022/05/22 04:20:39;;;;;;;5.37;1.47;;;;;;;30.03;nan;94318.94;4745401;30;20664;-75
2022/05/22 04:25:54;;;;;;;1.60;1.50;;;;;;;29.86;nan;94322.50;4761852;30;20215;-75
2022/05/22 04:28:19;;;;;;;1.63;1.53;;;;;;;30.23;nan;94319.28;4749176;30;20500;-74
2022/05/22 04:30:45;;;;;;;4.50;1.53;;;;;;;30.12;nan;94321.56;4751792;30;20534;-75
2022/05/22 04:33:10;;;;;;;2.67;1.83;;;;;;;29.85;nan;94317.44;4748389;30;20204;-75
2022/05/22 04:35:37;;;;;;;1.53;1.43;;;;;;;29.50;nan;94325.59;4745284;30;20226;-75
2022/05/22 04:38:03;;;;;;;5.47;1.60;;;;;;;30.06;nan;94330.97;4754092;30;20192;-75
2022/05/22 04:40:28;;;;;;;2.47;1.63;;;;;;;30.26;nan;94324.03;4750580;30;20456;-75
2022/05/22 04:42:54;;;;;;;5.97;1.97;;;;;;;30.29;nan;94321.47;4755319;30;20533;-75
2022/05/22 04:45:19;;;;;;;2.07;1.80;;;;;;;30.27;nan;94331.78;4762422;30;20245;-74
2022/05/22 04:47:44;;;;;;;2.07;1.57;;;;;;;30.55;nan;94337.53;4745252;30;20216;-75
2022/05/22 04:50:13;;;;;;;1.70;1.60;;;;;;;29.78;nan;94332.22;4745495;30;20274;-75
2022/05/22 04:52:38;;;;;;;2.00;1.90;;;;;;;30.07;nan;94332.53;4747309;30;20223;-75
2022/05/22 04:55:05;;;;;;;2.90;1.70;;;;;;;30.33;nan;94324.31;4753503;30;20461;-74
2022/05/22 04:57:31;;;;;;;2.80;1.50;;;;;;;29.49;nan;94321.34;4765870;30;20575;-74
2022/05/22 04:59:56;;;;;;;2.23;2.03;;;;;;;29.62;nan;94327.66;4758877;30;20454;-75
2022/05/22 05:02:23;;;;;;;2.80;1.77;;;;;;;29.71;nan;94320.28;4765739;30;20207;-75
2022/05/22 05:04:52;;;;;;;1.70;1.60;;;;;;;29.74;nan;94320.47;4761681;30;20195;-75
2022/05/22 05:07:18;;;;;;;1.87;1.60;;;;;;;30.30;nan;94330.38;4763841;30;20473;-74
2022/05/22 05:09:45;;;;;;;1.63;1.53;;;;;;;30.06;nan;94318.25;4747945;30;20438;-75
2022/05/22 05:12:11;;;;;;;3.53;1.90;;;;;;;30.60;nan;94323.03;4757715;30;20202;-76
2022/05/22 05:14:37;;;;;;;1.70;1.60;;;;;;;31.02;nan;94333.84;4765696;30;20779;-75
2022/05/22 05:17:08;;;;;;;2.07;1.97;;;;;;;30.87;nan;94332.50;4749228;30;20640;-75
2022/05/22 05:19:33;;;;;;;1.70;1.60;;;;;;;30.81;nan;94328.44;4748055;30;20419;-74
2022/05/22 05:21:59;;;;;;;2.30;1.63;;;;;;;31.06;nan;94329.34;4755138;30;20488;-75
2022/05/22 05:24:24;;;;;;;3.00;1.93;;;;;;;30.61;nan;94329.22;4764348;30;20188;-75
2022/05/22 05:26:51;;;;;;;2.60;1.80;;;;;;;30.57;nan;94328.31;4761085;30;20222;-74
2022/05/22 05:29:16;;;;;;;2.70;2.20;;;;;;;31.23;nan;94343.84;4765595;30;20186;-75
2022/05/22 05:31:42;;;;;;;2.30;2.10;;;;;;;30.98;nan;94337.53;4765379;30;20449;-75
2022/05/22 05:34:08;;;;;;;2.10;1.90;;;;;;;30.68;nan;94329.50;4756075;30;20199;-74
2022/05/22 05:36:33;;;;;;;2.67;2.00;;;;;;;31.29;nan;94340.59;4747841;30;20630;-75
2022/05/22 05:38:59;;;;;;;2.47;2.27;;;;;;;31.21;nan;94344.16;4747342;30;20247;-75
2022/05/22 05:41:24;;;;;;;4.60;2.47;;;;;;;31.07;nan;94338.25;4747893;30;20191;-74
2022/05/22 05:43:50;;;;;;;2.20;2.00;;;;;;;31.32;nan;94334.53;4732791;30;20231;-75
2022/05/22 05:46:15;;;;;;;3.10;2.60;;;;;;;31.51;nan;94339.44;4746308;30;20205;-75
2022/05/22 05:48:41;;;;;;;3.33;2.57;;;;;;;31.96;nan;94337.00;4732348;30;20282;-75
2022/05/22 05:51:07;;;;;;;3.37;2.40;;;;;;;31.65;nan;94339.13;4747442;30;20262;-76
2022/05/22 05:53:32;;;;;;;3.13;2.00;;;;;;;31.46;nan;94338.84;4747549;30;20454;-75
2022/05/22 05:56:02;;;;;;;1.80;1.70;;;;;;;30.40;nan;94340.81;4747392;30;20193;-75
2022/05/22 05:58:27;;;;;;;2.60;1.60;;;;;;;30.41;nan;94345.09;4756057;30;20196;-74
2022/05/22 06:00:52;;;;;;;1.43;1.20;;;;;;;30.38;nan;94345.75;4760237;30;20456;-74
2022/05/22 06:03:18;;;;;;;1.63;1.53;;;;;;;29.56;nan;94351.31;4765175;30;20199;-75
2022/05/22 06:05:43;;;;;;;2.03;1.80;;;;;;;30.11;nan;94350.47;4764506;30;20209;-75
2022/05/22 06:08:09;;;;;;;2.50;2.30;;;;;;;29.90;nan;94355.00;4764654;30;20210;-74
2022/05/22 06:10:36;;;;;;;6.03;2.00;;;;;;;29.00;nan;94352.00;4759708;30;20196;-75
2022/05/22 06:13:02;;;;;;;1.70;1.60;;;;;;;29.33;nan;94348.00;4765187;30;20215;-75
2022/05/22 06:15:27;;;;;;;2.60;2.40;;;;;;;29.82;nan;94359.31;4752266;30;20505;-75
2022/05/22 06:17:56;;;;;;;3.97;2.30;;;;;;;29.37;nan;94352.47;4764437;30;20256;-76
2022/05/22 06:20:21;;;;;;;3.07;2.00;;;;;;;28.76;nan;94357.06;4748538;30;20202;-75
2022/05/22 06:22:47;;;;;;;1.97;1.77;;;;;;;28.76;nan;94357.06;4757950;30;20434;-75
2022/05/22 06:25:15;;;;;;;4.03;2.73;;;;;;;29.68;nan;94354.13;4752744;30;20217;-75
2022/05/22 06:27:43;;;;;;;4.50;2.80;;;;;;;29.36;nan;94355.47;4763590;30;20644;-75
2022/05/22 06:30:12;;;;;;;3.10;1.90;;;;;;;29.46;nan;94351.63;4745141;30;20538;-74
2022/05/22 06:32:40;;;;;;;4.40;3.10;;;;;;;29.62;nan;94352.72;4746777;30;20434;-74
2022/05/22 06:35:06;;;;;;;4.97;3.40;;;;;;;29.54;nan;94345.44;4749716;30;20499;-75
2022/05/22 06:37:32;;;;;;;11.10;4.53;;;;;;;30.55;nan;94348.31;4750979;30;20520;-75
2022/05/22 06:39:57;;;;;;;2.97;2.40;;;;;;;30.43;nan;94350.97;4760679;30;20496;-75
2022/05/22 06:42:29;;;;;;;2.90;1.93;;;;;;;30.57;nan;94350.72;4764650;30;20206;-75
2022/05/22 06:44:54;;;;;;;2.57;2.30;;;;;;;30.20;nan;94345.00;4748449;30;20198;-75
2022/05/22 06:47:20;;;;;;;2.43;2.23;;;;;;;30.11;nan;94344.28;4762934;30;20473;-75
2022/05/22 06:49:46;;;;;;;2.30;2.10;;;;;;;29.54;nan;94342.75;4744641;30;20227;-75
2022/05/22 06:52:12;;;;;;;3.07;2.87;;;;;;;30.66;nan;94342.56;4746025;30;20596;-75
2022/05/22 06:54:38;;;;;;;2.40;1.53;;;;;;;30.11;nan;94339.69;4746748;30;20426;-75
2022/05/22 06:57:04;;;;;;;2.23;1.90;;;;;;;30.78;nan;94344.53;4751736;30;20415;-75
2022/05/22 06:59:29;;;;;;;5.00;2.03;;;;;;;31.80;nan;94343.09;4763966;30;20195;-75
2022/05/22 07:01:57;;;;;;;2.50;1.67;;;;;;;31.27;nan;94350.94;4755230;30;20325;-75
2022/05/22 07:04:23;;;;;;;4.77;2.00;;;;;;;31.79;nan;94346.13;4746925;30;20200;-75
2022/05/22 07:06:48;;;;;;;6.50;2.00;;;;;;;31.41;nan;94344.44;4763896;30;20536;-75
2022/05/22 07:09:15;;;;;;;5.00;2.07;;;;;;;31.19;nan;94342.91;4764352;30;20191;-75
2022/05/22 07:11:40;;;;;;;3.70;1.80;;;;;;;31.98;nan;94327.41;4749207;30;20200;-75
2022/05/22 07:14:07;;;;;;;2.90;1.97;;;;;;;31.89;nan;94338.34;4752211;30;20521;-75
2022/05/22 07:16:37;;;;;;;1.70;1.60;;;;;;;31.11;nan;94328.34;4751275;30;20231;-75
2022/05/22 07:19:05;;;;;;;2.60;2.23;;;;;;;31.76;nan;94342.19;4730487;30;20450;-75
2022/05/22 07:21:30;;;;;;;2.43;1.73;;;;;;;30.78;nan;94329.09;4758225;30;20860;-75
2022/05/22 07:23:56;;;;;;;2.10;1.60;;;;;;;30.32;nan;94326.25;4740139;30;20457;-75
2022/05/22 07:26:24;;;;;;;1.80;1.70;;;;;;;31.39;nan;94328.53;4763497;30;20268;-75
2022/05/22 07:28:50;;;;;;;2.80;1.93;;;;;;;31.33;nan;94322.56;4758508;30;20192;-76
2022/05/22 07:31:17;;;;;;;4.40;2.93;;;;;;;31.09;nan;94327.88;4746161;30;20938;-75
2022/05/22 07:33:43;;;;;;;4.07;2.30;;;;;;;31.44;nan;94332.97;4747229;30;20203;-75
2022/05/22 07:36:09;;;;;;;2.23;1.93;;;;;;;31.97;nan;94333.97;4763504;30;20807;-76
2022/05/22 07:38:35;;;;;;;4.30;1.87;;;;;;;31.52;nan;94337.50;4758978;30;20452;-75
2022/05/22 07:41:00;;;;;;;1.87;1.40;;;;;;;31.53;nan;94336.41;4750203;30;20207;-75
2022/05/22 07:43:25;;;;;;;3.90;1.90;;;;;;;31.82;nan;94334.63;4757796;30;20200;-75
2022/05/22 07:45:51;;;;;;;6.87;2.10;;;;;;;32.06;nan;94337.38;4757759;30;20197;-76
2022/05/22 07:48:17;;;;;;;2.00;1.90;;;;;;;31.44;nan;94332.97;4760534;30;20273;-74
2022/05/22 07:50:43;;;;;;;2.87;2.67;;;;;;;31.68;nan;94327.63;4746600;30;20238;-75
2022/05/22 07:53:09;;;;;;;3.00;2.17;;;;;;;32.18;nan;94327.69;4759192;30;20478;-75
2022/05/22 07:55:34;;;;;;;2.10;1.97;;;;;;;31.71;nan;94316.13;4745883;30;20192;-76
2022/05/22 07:57:59;;;;;;;2.67;2.20;;;;;;;30.47;nan;94302.50;4745676;30;20203;-75
2022/05/22 08:00:25;;;;;;;2.43;2.10;;;;;;;30.16;nan;94299.00;4747061;30;20238;-75
2022/05/22 08:02:51;;;;;;;12.63;3.00;;;;;;;30.34;nan;94304.31;4748867;30;20200;-75
2022/05/22 08:05:18;;;;;;;4.77;2.43;;;;;;;29.94;nan;94307.38;4745517;30;20274;-75
2022/05/22 08:07:44;;;;;;;5.10;2.40;;;;;;;29.49;nan;94291.69;4754309;30;20266;-75
2022/05/22 08:10:11;;;;;;;3.43;1.83;;;;;;;28.99;nan;94277.69;4746830;30;20478;-75
2022/05/22 08:12:38;;;;;;;3.83;2.70;;;;;;;29.91;nan;94275.66;4745745;30;20196;-75
2022/05/22 08:15:05;;;;;;;2.90;2.03;;;;;;;30.01;nan;94274.47;4745748;30;20476;-75
2022/05/22 08:17:35;;;;;;;12.57;3.10;;;;;;;30.06;nan;94280.47;4752803;30;20438;-75
2022/05/22 08:20:06;;;;;;;6.00;2.53;;;;;;;29.66;nan;94285.44;4759025;30;20585;-74
2022/05/22 08:22:31;;;;;;;6.67;2.47;;;;;;;30.38;nan;94286.34;4762783;30;20434;-75
2022/05/22 08:24:57;;;;;;;3.40;1.83;;;;;;;29.89;nan;94283.28;4753623;30;20437;-75
2022/05/22 08:27:22;;;;;;;3.63;1.90;;;;;;;29.65;nan;94273.03;4762761;30;20230;-75
2022/05/22 08:29:47;;;;;;;3.03;2.07;;;;;;;29.31;nan;94259.38;4762721;30;20206;-74
2022/05/22 08:32:13;;;;;;;3.20;2.10;;;;;;;30.03;nan;94264.94;4760844;30;20235;-75
2022/05/22 08:34:38;;;;;;;8.90;2.50;;;;;;;30.79;nan;94260.44;4748569;30;20196;-76
2022/05/22 08:37:04;;;;;;;7.63;2.23;;;;;;;29.71;nan;94267.16;4752956;30;20229;-75
2022/05/22 08:39:30;;;;;;;3.27;2.10;;;;;;;30.41;nan;94255.97;4767619;30;20198;-75
2022/05/22 08:41:58;;;;;;;2.47;2.27;;;;;;;29.66;nan;94253.84;4784678;30;20191;-75
2022/05/22 08:44:32;;;;;;;1.50;1.40;;;;;;;29.49;nan;94252.00;4755338;30;20214;-74
2022/05/22 08:47:03;;;;;;;3.43;1.70;;;;;;;29.16;nan;94239.13;4765998;30;20824;-74
2022/05/22 08:49:49;;;;;;;5.00;2.13;;;;;;;29.30;nan;94257.81;4763397;30;20433;-75
2022/05/22 08:52:24;;;;;;;2.70;2.07;;;;;;;30.22;nan;94261.00;4748856;30;20512;-75
2022/05/22 08:54:55;;;;;;;2.77;2.40;;;;;;;29.71;nan;94255.56;4754043;30;20426;-75
2022/05/22 09:00:37;;;;;;;2.23;1.90;;;;;;;28.56;nan;94248.88;4723348;30;20965;-75
2022/05/22 09:03:14;;;;;;;4.63;2.17;;;;;;;28.82;nan;94242.69;4751927;30;20446;-74
2022/05/22 09:05:41;;;;;;;4.60;2.43;;;;;;;29.23;nan;94241.31;4748687;30;21026;-75
2022/05/22 09:08:06;;;;;;;3.80;2.60;;;;;;;28.83;nan;94260.41;4746494;30;20481;-75
2022/05/22 09:10:56;;;;;;;5.70;4.03;;;;;;;29.49;nan;94270.88;4750257;30;20522;-75
2022/05/22 09:13:45;;;;;;;2.67;2.53;;;;;;;29.81;nan;94273.34;4759416;30;20671;-74
2022/05/22 09:16:18;;;;;;;2.80;2.60;;;;;;;29.67;nan;94271.63;4752801;30;20943;-75
2022/05/22 09:19:03;;;;;;;2.83;2.60;;;;;;;28.97;nan;94271.81;4746602;30;20434;-75
2022/05/22 09:21:55;;;;;;;2.97;2.73;;;;;;;29.46;nan;94268.03;4749359;30;20444;-75
2022/05/22 09:24:38;;;;;;;6.60;3.60;;;;;;;29.65;nan;94263.03;4722731;30;20532;-75
2022/05/22 09:27:31;;;;;;;6.60;2.03;;;;;;;29.95;nan;94257.69;4751913;30;20477;-75
2022/05/22 09:30:18;;;;;;;2.47;2.10;;;;;;;29.43;nan;94256.00;4752543;30;20960;-75
2022/05/22 09:33:13;;;;;;;4.67;2.23;;;;;;;29.85;nan;94244.56;4732989;30;20504;-75
2022/05/22 09:35:51;;;;;;;5.70;1.90;;;;;;;29.47;nan;94237.28;4763300;30;20441;-75
2022/05/22 09:38:55;;;;;;;3.47;2.20;;;;;;;29.40;nan;94235.06;4764609;30;20417;-74
2022/05/22 09:41:45;;;;;;;6.67;1.97;;;;;;;29.36;nan;94229.53;4714875;30;20438;-75
2022/05/22 09:44:16;;;;;;;1.47;1.37;;;;;;;29.09;nan;94230.72;4758648;30;20826;-75
2022/05/22 09:46:51;;;;;;;3.33;1.50;;;;;;;30.13;nan;94234.88;4765111;30;20469;-75
2022/05/22 09:49:42;;;;;;;2.20;2.00;;;;;;;29.62;nan;94228.63;4756560;30;20472;-75
2022/05/22 09:52:28;;;;;;;12.67;1.90;;;;;;;31.26;nan;94233.06;4760593;30;20490;-75
2022/05/22 09:55:06;;;;;;;8.43;2.40;;;;;;;31.33;nan;94221.72;4779601;30;20774;-75
2022/05/22 09:57:34;;;;;;;3.17;1.77;;;;;;;31.15;nan;94221.09;4757457;30;20438;-74
2022/05/22 10:00:22;;;;;;;2.10;1.60;;;;;;;31.56;nan;94211.25;4747495;30;20889;-75
2022/05/22 10:03:09;;;;;;;5.90;2.30;;;;;;;32.35;nan;94202.81;4754538;30;20443;-75
2022/05/22 10:05:46;;;;;;;3.00;2.03;;;;;;;32.98;nan;94204.13;4742669;30;20542;-75
2022/05/22 10:08:18;;;;;;;1.80;1.43;;;;;;;31.48;nan;94177.00;4748878;30;21048;-75
2022/05/22 10:10:49;;;;;;;2.73;2.00;;;;;;;33.01;nan;94189.88;4755904;30;21042;-75
2022/05/22 10:13:45;;;;;;;3.17;1.70;;;;;;;32.95;nan;94181.19;4746273;30;20525;-75
2022/05/22 10:16:17;;;;;;;2.87;1.87;;;;;;;33.39;nan;94180.38;4748313;30;21001;-75
2022/05/22 10:19:06;;;;;;;6.83;1.90;;;;;;;33.14;nan;94175.13;4764637;30;20491;-75
2022/05/22 10:21:44;;;;;;;2.30;1.93;;;;;;;32.15;nan;94179.41;4764532;30;20455;-75
2022/05/22 10:24:31;;;;;;;2.23;1.83;;;;;;;31.42;nan;94162.09;4754814;30;20462;-75
2022/05/22 10:27:30;;;;;;;3.50;1.77;;;;;;;32.05;nan;94175.25;4764910;30;20477;-75
2022/05/22 10:30:00;;;;;;;2.07;1.90;;;;;;;32.67;nan;94173.91;4748635;30;20439;-75
2022/05/22 10:32:49;;;;;;;1.50;1.40;;;;;;;33.16;nan;94175.59;4744711;30;21030;-75
2022/05/22 10:35:20;;;;;;;3.57;1.40;;;;;;;32.96;nan;94182.78;4764773;30;20459;-75
2022/05/22 10:38:19;;;;;;;5.77;2.30;;;;;;;32.73;nan;94163.63;4764458;30;20423;-75
2022/05/22 10:43:48;;;;;;;5.07;1.83;;;;;;;33.02;nan;94173.25;4754561;30;20441;-75
2022/05/22 10:46:13;;;;;;;3.30;1.40;;;;;;;32.80;nan;94152.97;4758684;30;20457;-75
2022/05/22 10:48:53;;;;;;;3.90;2.00;;;;;;;33.35;nan;94161.31;4746935;30;20469;-76
2022/05/22 10:51:28;;;;;;;4.43;2.00;;;;;;;30.29;nan;94172.16;4759517;30;21014;-75
2022/05/22 10:53:59;;;;;;;3.83;1.80;;;;;;;31.76;nan;94141.09;4758621;30;20443;-75
2022/05/22 10:56:28;;;;;;;3.50;1.67;;;;;;;32.68;nan;94156.50;4746853;30;20438;-75
2022/05/22 10:58:57;;;;;;;5.73;2.77;;;;;;;32.62;nan;94154.41;4746096;30;20455;-75
2022/05/22 11:01:31;;;;;;;7.13;2.40;;;;;;;32.25;nan;94159.94;4755437;30;20458;-75
2022/05/22 11:04:07;;;;;;;4.30;1.70;;;;;;;32.29;nan;94166.28;4750233;30;20441;-75
2022/05/22 11:06:35;;;;;;;3.20;1.93;;;;;;;32.37;nan;94151.78;4746367;30;20430;-75
2022/05/22 11:09:00;;;;;;;8.90;2.97;;;;;;;32.53;nan;94148.31;4762487;30;20509;-75
2022/05/22 11:11:30;;;;;;;2.53;2.17;;;;;;;32.85;nan;94160.03;4760993;30;20446;-75
2022/05/22 11:14:12;;;;;;;2.40;2.20;;;;;;;32.93;nan;94161.00;4763963;30;20202;-75
2022/05/22 11:16:39;;;;;;;2.23;2.10;;;;;;;33.71;nan;94155.91;4751962;30;20454;-75
2022/05/22 11:19:24;;;;;;;2.80;1.80;;;;;;;34.59;nan;94155.44;4745801;30;20488;-75
2022/05/22 11:21:49;;;;;;;4.40;1.80;;;;;;;33.03;nan;94136.88;4739537;30;20453;-75
2022/05/22 11:24:44;;;;;;;1.93;1.80;;;;;;;33.12;nan;94150.28;4753787;30;20551;-75
2022/05/22 11:27:15;;;;;;;3.23;1.80;;;;;;;32.06;nan;94130.78;4709861;30;20220;-75
2022/05/22 11:30:04;;;;;;;2.43;2.13;;;;;;;31.60;nan;94136.41;4748490;30;20445;-75
2022/05/22 11:33:00;;;;;;;1.70;1.60;;;;;;;32.32;nan;94135.78;4753846;30;20450;-75
2022/05/22 11:35:48;;;;;;;2.20;2.00;;;;;;;31.85;nan;94125.53;4746361;30;20438;-75
2022/05/22 11:38:28;;;;;;;4.63;3.00;;;;;;;31.53;nan;94106.44;4759590;30;20442;-75
2022/05/22 11:41:13;;;;;;;2.60;2.30;;;;;;;31.81;nan;94121.94;4760439;30;20471;-75
2022/05/22 11:44:15;;;;;;;2.37;2.17;;;;;;;30.77;nan;94100.50;4745882;30;20410;-75
2022/05/22 11:46:59;;;;;;;3.83;2.07;;;;;;;30.94;nan;94115.75;4740736;30;20485;-75
2022/05/22 11:49:46;;;;;;;9.17;1.80;;;;;;;30.81;nan;94117.66;4756252;30;20473;-75
2022/05/22 11:52:56;;;;;;;1.97;1.77;;;;;;;29.68;nan;94124.81;4746751;30;20491;-75
2022/05/22 11:55:50;;;;;;;1.50;1.40;;;;;;;29.27;nan;94123.66;4745786;30;20438;-74
2022/05/22 11:58:41;;;;;;;1.90;1.80;;;;;;;29.11;nan;94120.69;4745310;30;20443;-75
2022/05/22 12:01:15;;;;;;;2.17;2.07;;;;;;;30.04;nan;94136.97;4704948;30;20450;-75
2022/05/22 12:04:18;;;;;;;4.07;2.30;;;;;;;29.93;nan;94146.56;4747398;30;20441;-75
2022/05/22 12:07:02;;;;;;;1.83;1.70;;;;;;;30.06;nan;94142.81;4761325;30;20538;-75
2022/05/22 12:10:06;;;;;;;2.50;1.50;;;;;;;29.93;nan;94149.28;4747754;30;20789;-75
2022/05/22 12:12:40;;;;;;;2.77;2.07;;;;;;;30.04;nan;94134.25;4752993;30;20456;-75
2022/05/22 12:15:25;;;;;;;1.50;1.40;;;;;;;29.29;nan;94124.13;4756029;30;20505;-76
2022/05/22 12:18:09;;;;;;;2.07;1.90;;;;;;;29.06;nan;94133.56;4745913;30;20525;-75
2022/05/22 12:20:40;;;;;;;2.30;2.20;;;;;;;29.15;nan;94139.72;4745747;30;20451;-75